sensor_id;sensor_type;location;lat;lon;timestamp;temperature;humidity
41437;DHT22;27178;49.460;10.850;2023-10-09T00:00:16;17.80;76.30
41437;DHT22;27178;49.460;10.850;2023-10-09T00:03:03;17.70;76.30
41437;DHT22;27178;49.460;10.850;2023-10-09T00:05:34;17.70;76.30
41437;DHT22;27178;49.460;10.850;2023-10-09T00:08:15;17.60;76.50
41437;DHT22;27178;49.460;10.850;2023-10-09T00:10:48;17.60;76.90
41437;DHT22;27178;49.460;10.850;2023-10-09T00:13:21;17.60;76.90
41437;DHT22;27178;49.460;10.850;2023-10-09T00:15:57;17.60;76.90
41437;DHT22;27178;49.460;10.850;2023-10-09T00:18:28;17.60;76.90
41437;DHT22;27178;49.460;10.850;2023-10-09T00:20:57;17.50;76.80
41437;DHT22;27178;49.460;10.850;2023-10-09T00:23:38;17.50;76.80
41437;DHT22;27178;49.460;10.850;2023-10-09T00:26:06;17.50;76.80
41437;DHT22;27178;49.460;10.850;2023-10-09T00:28:38;17.50;76.70
41437;DHT22;27178;49.460;10.850;2023-10-09T00:31:12;17.50;76.80
41437;DHT22;27178;49.460;10.850;2023-10-09T00:33:43;17.50;76.90
41437;DHT22;27178;49.460;10.850;2023-10-09T00:36:12;17.50;76.80
41437;DHT22;27178;49.460;10.850;2023-10-09T00:38:44;17.50;76.90
41437;DHT22;27178;49.460;10.850;2023-10-09T00:41:16;17.50;77.00
41437;DHT22;27178;49.460;10.850;2023-10-09T00:43:49;17.50;77.10
41437;DHT22;27178;49.460;10.850;2023-10-09T00:46:21;17.50;77.10
41437;DHT22;27178;49.460;10.850;2023-10-09T00:48:56;17.50;77.30
41437;DHT22;27178;49.460;10.850;2023-10-09T00:51:29;17.50;77.30
41437;DHT22;27178;49.460;10.850;2023-10-09T00:54:05;17.40;77.20
41437;DHT22;27178;49.460;10.850;2023-10-09T00:56:42;17.50;77.50
41437;DHT22;27178;49.460;10.850;2023-10-09T00:59:19;17.50;77.60
41437;DHT22;27178;49.460;10.850;2023-10-09T01:01:50;17.50;77.80
41437;DHT22;27178;49.460;10.850;2023-10-09T01:04:25;17.40;77.90
41437;DHT22;27178;49.460;10.850;2023-10-09T01:06:56;17.50;77.90
41437;DHT22;27178;49.460;10.850;2023-10-09T01:09:35;17.50;78.00
41437;DHT22;27178;49.460;10.850;2023-10-09T01:12:05;17.50;78.40
41437;DHT22;27178;49.460;10.850;2023-10-09T01:14:34;17.50;78.90
41437;DHT22;27178;49.460;10.850;2023-10-09T01:17:06;17.50;78.60
41437;DHT22;27178;49.460;10.850;2023-10-09T01:19:37;17.50;78.90
41437;DHT22;27178;49.460;10.850;2023-10-09T01:22:05;17.50;78.70
41437;DHT22;27178;49.460;10.850;2023-10-09T01:24:41;17.50;78.80
41437;DHT22;27178;49.460;10.850;2023-10-09T01:27:11;17.50;79.70
41437;DHT22;27178;49.460;10.850;2023-10-09T01:29:43;17.60;78.70
41437;DHT22;27178;49.460;10.850;2023-10-09T01:32:13;17.60;78.60
41437;DHT22;27178;49.460;10.850;2023-10-09T01:34:47;17.60;78.60
41437;DHT22;27178;49.460;10.850;2023-10-09T01:37:18;17.60;78.60
41437;DHT22;27178;49.460;10.850;2023-10-09T01:39:52;17.70;78.60
41437;DHT22;27178;49.460;10.850;2023-10-09T01:42:25;17.70;78.60
41437;DHT22;27178;49.460;10.850;2023-10-09T01:45:02;17.70;78.40
41437;DHT22;27178;49.460;10.850;2023-10-09T01:47:43;17.70;78.40
41437;DHT22;27178;49.460;10.850;2023-10-09T01:50:19;17.70;78.20
41437;DHT22;27178;49.460;10.850;2023-10-09T01:52:51;17.70;78.30
41437;DHT22;27178;49.460;10.850;2023-10-09T01:55:21;17.70;78.40
41437;DHT22;27178;49.460;10.850;2023-10-09T01:57:58;17.70;78.40
41437;DHT22;27178;49.460;10.850;2023-10-09T02:00:32;17.70;78.40
41437;DHT22;27178;49.460;10.850;2023-10-09T02:03:09;17.70;78.40
41437;DHT22;27178;49.460;10.850;2023-10-09T02:05:49;17.70;78.40
41437;DHT22;27178;49.460;10.850;2023-10-09T02:08:18;17.70;78.50
41437;DHT22;27178;49.460;10.850;2023-10-09T02:10:50;17.70;78.50
41437;DHT22;27178;49.460;10.850;2023-10-09T02:13:22;17.70;78.60
41437;DHT22;27178;49.460;10.850;2023-10-09T02:15:57;17.70;78.60
41437;DHT22;27178;49.460;10.850;2023-10-09T02:18:41;17.70;79.50
41437;DHT22;27178;49.460;10.850;2023-10-09T02:21:20;17.70;78.50
41437;DHT22;27178;49.460;10.850;2023-10-09T02:24:01;17.70;78.50
41437;DHT22;27178;49.460;10.850;2023-10-09T02:26:34;17.70;78.60
41437;DHT22;27178;49.460;10.850;2023-10-09T02:29:29;17.70;78.60
41437;DHT22;27178;49.460;10.850;2023-10-09T02:32:02;17.70;78.60
41437;DHT22;27178;49.460;10.850;2023-10-09T02:34:40;17.70;78.60
41437;DHT22;27178;49.460;10.850;2023-10-09T02:37:09;17.70;78.60
41437;DHT22;27178;49.460;10.850;2023-10-09T02:39:40;17.70;78.60
41437;DHT22;27178;49.460;10.850;2023-10-09T02:42:16;17.70;78.70
41437;DHT22;27178;49.460;10.850;2023-10-09T02:44:55;17.70;78.70
41437;DHT22;27178;49.460;10.850;2023-10-09T02:47:26;17.70;78.60
41437;DHT22;27178;49.460;10.850;2023-10-09T02:49:59;17.70;78.60
41437;DHT22;27178;49.460;10.850;2023-10-09T02:52:33;17.70;78.60
41437;DHT22;27178;49.460;10.850;2023-10-09T02:55:08;17.70;78.60
41437;DHT22;27178;49.460;10.850;2023-10-09T02:57:43;17.70;78.60
41437;DHT22;27178;49.460;10.850;2023-10-09T03:00:12;17.70;78.50
41437;DHT22;27178;49.460;10.850;2023-10-09T03:02:46;17.70;78.50
41437;DHT22;27178;49.460;10.850;2023-10-09T03:05:17;17.70;78.50
41437;DHT22;27178;49.460;10.850;2023-10-09T03:07:48;17.70;78.40
41437;DHT22;27178;49.460;10.850;2023-10-09T03:10:19;17.70;78.40
41437;DHT22;27178;49.460;10.850;2023-10-09T03:12:49;17.70;78.40
41437;DHT22;27178;49.460;10.850;2023-10-09T03:15:20;17.70;78.40
41437;DHT22;27178;49.460;10.850;2023-10-09T03:17:49;17.60;78.20
41437;DHT22;27178;49.460;10.850;2023-10-09T03:20:17;17.60;78.20
41437;DHT22;27178;49.460;10.850;2023-10-09T03:22:46;17.60;78.20
41437;DHT22;27178;49.460;10.850;2023-10-09T03:25:15;17.60;78.10
41437;DHT22;27178;49.460;10.850;2023-10-09T03:27:45;17.60;78.00
41437;DHT22;27178;49.460;10.850;2023-10-09T03:30:16;17.60;78.00
41437;DHT22;27178;49.460;10.850;2023-10-09T03:32:51;17.60;78.00
41437;DHT22;27178;49.460;10.850;2023-10-09T03:35:21;17.60;78.00
41437;DHT22;27178;49.460;10.850;2023-10-09T03:37:54;17.60;77.80
41437;DHT22;27178;49.460;10.850;2023-10-09T03:40:26;17.60;77.80
41437;DHT22;27178;49.460;10.850;2023-10-09T03:42:55;17.60;77.80
41437;DHT22;27178;49.460;10.850;2023-10-09T03:45:25;17.60;77.70
41437;DHT22;27178;49.460;10.850;2023-10-09T03:47:55;17.60;77.60
41437;DHT22;27178;49.460;10.850;2023-10-09T03:50:29;17.60;77.60
41437;DHT22;27178;49.460;10.850;2023-10-09T03:53:04;17.60;77.60
41437;DHT22;27178;49.460;10.850;2023-10-09T03:55:35;17.60;77.50
41437;DHT22;27178;49.460;10.850;2023-10-09T03:58:05;17.60;77.40
41437;DHT22;27178;49.460;10.850;2023-10-09T04:00:35;17.60;77.30
41437;DHT22;27178;49.460;10.850;2023-10-09T04:03:13;17.60;77.30
41437;DHT22;27178;49.460;10.850;2023-10-09T04:05:42;17.60;77.20
41437;DHT22;27178;49.460;10.850;2023-10-09T04:08:12;17.60;77.00
41437;DHT22;27178;49.460;10.850;2023-10-09T04:10:47;17.60;76.90
41437;DHT22;27178;49.460;10.850;2023-10-09T04:13:24;17.60;76.70
41437;DHT22;27178;49.460;10.850;2023-10-09T04:16:03;17.60;76.50
41437;DHT22;27178;49.460;10.850;2023-10-09T04:18:40;17.50;76.40
41437;DHT22;27178;49.460;10.850;2023-10-09T04:21:12;17.50;76.30
41437;DHT22;27178;49.460;10.850;2023-10-09T04:23:47;17.50;76.20
41437;DHT22;27178;49.460;10.850;2023-10-09T04:26:32;17.40;76.20
41437;DHT22;27178;49.460;10.850;2023-10-09T04:29:03;17.40;76.30
41437;DHT22;27178;49.460;10.850;2023-10-09T04:31:34;17.40;76.40
41437;DHT22;27178;49.460;10.850;2023-10-09T04:37:52;17.30;76.70
41437;DHT22;27178;49.460;10.850;2023-10-09T04:40:30;17.20;76.50
41437;DHT22;27178;49.460;10.850;2023-10-09T04:43:18;17.20;76.70
41437;DHT22;27178;49.460;10.850;2023-10-09T04:45:49;17.10;76.70
41437;DHT22;27178;49.460;10.850;2023-10-09T04:48:41;17.10;76.80
41437;DHT22;27178;49.460;10.850;2023-10-09T04:51:15;17.00;76.90
41437;DHT22;27178;49.460;10.850;2023-10-09T04:53:49;17.00;76.90
41437;DHT22;27178;49.460;10.850;2023-10-09T04:56:27;17.00;77.10
41437;DHT22;27178;49.460;10.850;2023-10-09T04:58:59;16.90;77.20
41437;DHT22;27178;49.460;10.850;2023-10-09T05:01:34;16.90;77.30
41437;DHT22;27178;49.460;10.850;2023-10-09T05:04:12;16.80;77.30
41437;DHT22;27178;49.460;10.850;2023-10-09T05:07:01;16.80;77.50
41437;DHT22;27178;49.460;10.850;2023-10-09T05:09:50;16.80;77.50
41437;DHT22;27178;49.460;10.850;2023-10-09T05:12:31;16.80;77.60
41437;DHT22;27178;49.460;10.850;2023-10-09T05:15:00;16.80;77.60
41437;DHT22;27178;49.460;10.850;2023-10-09T05:17:36;16.80;77.70
41437;DHT22;27178;49.460;10.850;2023-10-09T05:20:07;16.80;77.70
41437;DHT22;27178;49.460;10.850;2023-10-09T05:22:53;16.80;77.70
41437;DHT22;27178;49.460;10.850;2023-10-09T05:25:26;16.80;77.50
41437;DHT22;27178;49.460;10.850;2023-10-09T05:28:12;16.90;77.60
41437;DHT22;27178;49.460;10.850;2023-10-09T05:31:01;16.90;77.50
41437;DHT22;27178;49.460;10.850;2023-10-09T05:33:36;16.90;77.50
41437;DHT22;27178;49.460;10.850;2023-10-09T05:36:07;16.90;77.30
41437;DHT22;27178;49.460;10.850;2023-10-09T05:39:03;16.90;77.20
41437;DHT22;27178;49.460;10.850;2023-10-09T05:41:49;16.90;76.90
41437;DHT22;27178;49.460;10.850;2023-10-09T05:44:27;16.90;76.60
41437;DHT22;27178;49.460;10.850;2023-10-09T05:47:12;16.80;76.40
41437;DHT22;27178;49.460;10.850;2023-10-09T05:50:00;16.80;76.10
41437;DHT22;27178;49.460;10.850;2023-10-09T05:52:46;16.80;76.20
41437;DHT22;27178;49.460;10.850;2023-10-09T05:55:35;16.70;76.40
41437;DHT22;27178;49.460;10.850;2023-10-09T05:58:19;16.60;76.50
41437;DHT22;27178;49.460;10.850;2023-10-09T06:01:05;16.60;76.70
41437;DHT22;27178;49.460;10.850;2023-10-09T06:03:54;16.50;77.00
41437;DHT22;27178;49.460;10.850;2023-10-09T06:06:22;16.50;77.20
41437;DHT22;27178;49.460;10.850;2023-10-09T06:09:12;16.50;77.50
41437;DHT22;27178;49.460;10.850;2023-10-09T06:11:58;16.50;77.70
41437;DHT22;27178;49.460;10.850;2023-10-09T06:14:41;16.60;78.70
41437;DHT22;27178;49.460;10.850;2023-10-09T06:17:25;16.70;78.10
41437;DHT22;27178;49.460;10.850;2023-10-09T06:19:57;16.70;78.00
41437;DHT22;27178;49.460;10.850;2023-10-09T06:22:52;16.80;78.10
41437;DHT22;27178;49.460;10.850;2023-10-09T06:25:27;16.90;78.10
41437;DHT22;27178;49.460;10.850;2023-10-09T06:28:00;16.90;78.20
41437;DHT22;27178;49.460;10.850;2023-10-09T06:30:28;17.00;78.30
41437;DHT22;27178;49.460;10.850;2023-10-09T06:33:02;17.00;78.20
41437;DHT22;27178;49.460;10.850;2023-10-09T06:35:47;17.10;78.30
41437;DHT22;27178;49.460;10.850;2023-10-09T06:38:20;17.10;78.10
41437;DHT22;27178;49.460;10.850;2023-10-09T06:41:02;17.20;78.00
41437;DHT22;27178;49.460;10.850;2023-10-09T06:43:48;17.20;77.60
41437;DHT22;27178;49.460;10.850;2023-10-09T06:46:20;17.30;77.50
41437;DHT22;27178;49.460;10.850;2023-10-09T06:49:06;17.40;77.30
41437;DHT22;27178;49.460;10.850;2023-10-09T06:51:56;17.50;77.20
41437;DHT22;27178;49.460;10.850;2023-10-09T06:54:41;17.50;77.00
41437;DHT22;27178;49.460;10.850;2023-10-09T06:57:19;17.60;76.80
41437;DHT22;27178;49.460;10.850;2023-10-09T07:00:15;17.60;76.60
41437;DHT22;27178;49.460;10.850;2023-10-09T07:03:02;17.70;76.50
41437;DHT22;27178;49.460;10.850;2023-10-09T07:05:39;17.80;76.10
41437;DHT22;27178;49.460;10.850;2023-10-09T07:08:28;17.80;75.80
41437;DHT22;27178;49.460;10.850;2023-10-09T07:11:04;17.90;75.80
41437;DHT22;27178;49.460;10.850;2023-10-09T07:13:48;17.90;75.70
41437;DHT22;27178;49.460;10.850;2023-10-09T07:16:23;18.00;75.60
41437;DHT22;27178;49.460;10.850;2023-10-09T07:18:56;18.00;75.50
41437;DHT22;27178;49.460;10.850;2023-10-09T07:21:36;18.10;75.30
41437;DHT22;27178;49.460;10.850;2023-10-09T07:24:06;18.20;75.50
41437;DHT22;27178;49.460;10.850;2023-10-09T07:26:44;18.20;75.30
41437;DHT22;27178;49.460;10.850;2023-10-09T07:29:22;18.30;75.20
41437;DHT22;27178;49.460;10.850;2023-10-09T07:31:52;18.40;75.10
41437;DHT22;27178;49.460;10.850;2023-10-09T07:34:25;18.40;75.00
41437;DHT22;27178;49.460;10.850;2023-10-09T07:37:10;18.40;75.00
41437;DHT22;27178;49.460;10.850;2023-10-09T07:39:46;18.50;74.90
41437;DHT22;27178;49.460;10.850;2023-10-09T07:42:24;18.50;74.60
41437;DHT22;27178;49.460;10.850;2023-10-09T07:45:12;18.60;74.80
41437;DHT22;27178;49.460;10.850;2023-10-09T07:48:01;18.60;74.60
41437;DHT22;27178;49.460;10.850;2023-10-09T07:50:38;18.70;74.50
41437;DHT22;27178;49.460;10.850;2023-10-09T07:53:08;18.70;74.20
41437;DHT22;27178;49.460;10.850;2023-10-09T07:55:54;18.80;74.30
41437;DHT22;27178;49.460;10.850;2023-10-09T07:58:25;18.80;75.00
41437;DHT22;27178;49.460;10.850;2023-10-09T08:00:56;18.80;74.00
41437;DHT22;27178;49.460;10.850;2023-10-09T08:03:42;18.90;73.80
41437;DHT22;27178;49.460;10.850;2023-10-09T08:06:16;19.00;73.80
41437;DHT22;27178;49.460;10.850;2023-10-09T08:09:34;19.00;73.70
41437;DHT22;27178;49.460;10.850;2023-10-09T08:12:15;19.10;73.50
41437;DHT22;27178;49.460;10.850;2023-10-09T08:14:57;19.10;73.30
41437;DHT22;27178;49.460;10.850;2023-10-09T08:17:41;19.10;73.30
41437;DHT22;27178;49.460;10.850;2023-10-09T08:20:15;19.20;73.10
41437;DHT22;27178;49.460;10.850;2023-10-09T08:22:44;19.20;73.20
41437;DHT22;27178;49.460;10.850;2023-10-09T08:25:18;19.30;73.10
41437;DHT22;27178;49.460;10.850;2023-10-09T08:27:58;19.30;73.00
41437;DHT22;27178;49.460;10.850;2023-10-09T08:30:46;19.30;72.90
41437;DHT22;27178;49.460;10.850;2023-10-09T08:33:31;19.40;72.90
41437;DHT22;27178;49.460;10.850;2023-10-09T08:36:11;19.50;72.80
41437;DHT22;27178;49.460;10.850;2023-10-09T08:38:42;19.50;72.90
41437;DHT22;27178;49.460;10.850;2023-10-09T08:41:13;19.50;72.80
41437;DHT22;27178;49.460;10.850;2023-10-09T08:43:48;19.60;73.10
41437;DHT22;27178;49.460;10.850;2023-10-09T08:46:22;19.60;72.90
41437;DHT22;27178;49.460;10.850;2023-10-09T08:48:57;19.60;73.00
41437;DHT22;27178;49.460;10.850;2023-10-09T08:51:27;19.70;72.90
41437;DHT22;27178;49.460;10.850;2023-10-09T08:53:56;19.70;72.80
41437;DHT22;27178;49.460;10.850;2023-10-09T08:56:25;19.80;72.80
41437;DHT22;27178;49.460;10.850;2023-10-09T08:58:56;19.80;72.60
41437;DHT22;27178;49.460;10.850;2023-10-09T09:01:25;19.80;72.50
41437;DHT22;27178;49.460;10.850;2023-10-09T09:03:56;19.90;72.50
41437;DHT22;27178;49.460;10.850;2023-10-09T09:06:25;19.90;72.30
41437;DHT22;27178;49.460;10.850;2023-10-09T09:09:10;20.00;72.40
41437;DHT22;27178;49.460;10.850;2023-10-09T09:11:41;20.00;72.20
41437;DHT22;27178;49.460;10.850;2023-10-09T09:14:15;20.00;72.50
41437;DHT22;27178;49.460;10.850;2023-10-09T09:16:49;20.10;72.30
41437;DHT22;27178;49.460;10.850;2023-10-09T09:19:31;20.10;72.20
41437;DHT22;27178;49.460;10.850;2023-10-09T09:22:05;20.20;71.80
41437;DHT22;27178;49.460;10.850;2023-10-09T09:24:40;20.20;72.00
41437;DHT22;27178;49.460;10.850;2023-10-09T09:27:45;20.20;71.90
41437;DHT22;27178;49.460;10.850;2023-10-09T09:30:23;20.30;71.40
41437;DHT22;27178;49.460;10.850;2023-10-09T09:32:52;20.30;71.50
41437;DHT22;27178;49.460;10.850;2023-10-09T09:35:36;20.30;71.50
41437;DHT22;27178;49.460;10.850;2023-10-09T09:38:05;20.40;71.40
41437;DHT22;27178;49.460;10.850;2023-10-09T09:40:34;20.40;71.40
41437;DHT22;27178;49.460;10.850;2023-10-09T09:43:09;20.40;71.20
41437;DHT22;27178;49.460;10.850;2023-10-09T09:45:49;20.40;71.10
41437;DHT22;27178;49.460;10.850;2023-10-09T09:48:18;20.40;71.30
41437;DHT22;27178;49.460;10.850;2023-10-09T09:50:47;20.50;71.30
41437;DHT22;27178;49.460;10.850;2023-10-09T09:53:21;20.50;71.60
41437;DHT22;27178;49.460;10.850;2023-10-09T09:55:51;20.50;71.50
41437;DHT22;27178;49.460;10.850;2023-10-09T09:58:26;20.50;71.40
41437;DHT22;27178;49.460;10.850;2023-10-09T10:01:01;20.50;71.40
41437;DHT22;27178;49.460;10.850;2023-10-09T10:03:38;20.50;71.40
41437;DHT22;27178;49.460;10.850;2023-10-09T10:06:13;20.60;71.30
41437;DHT22;27178;49.460;10.850;2023-10-09T10:08:47;20.60;71.30
41437;DHT22;27178;49.460;10.850;2023-10-09T10:11:43;20.60;71.20
41437;DHT22;27178;49.460;10.850;2023-10-09T10:14:12;20.60;71.00
41437;DHT22;27178;49.460;10.850;2023-10-09T10:17:03;20.70;71.10
41437;DHT22;27178;49.460;10.850;2023-10-09T10:20:03;20.70;70.70
41437;DHT22;27178;49.460;10.850;2023-10-09T10:23:17;20.70;70.60
41437;DHT22;27178;49.460;10.850;2023-10-09T10:25:47;20.70;70.50
41437;DHT22;27178;49.460;10.850;2023-10-09T10:28:27;20.70;70.70
41437;DHT22;27178;49.460;10.850;2023-10-09T10:31:06;20.70;70.60
41437;DHT22;27178;49.460;10.850;2023-10-09T10:34:05;20.70;70.60
41437;DHT22;27178;49.460;10.850;2023-10-09T10:36:38;20.70;70.30
41437;DHT22;27178;49.460;10.850;2023-10-09T10:39:11;20.70;70.50
41437;DHT22;27178;49.460;10.850;2023-10-09T10:41:55;20.70;70.50
41437;DHT22;27178;49.460;10.850;2023-10-09T10:44:26;20.80;70.70
41437;DHT22;27178;49.460;10.850;2023-10-09T10:47:06;20.70;70.90
41437;DHT22;27178;49.460;10.850;2023-10-09T10:49:50;20.70;70.90
41437;DHT22;27178;49.460;10.850;2023-10-09T10:52:21;20.70;71.30
41437;DHT22;27178;49.460;10.850;2023-10-09T10:55:11;20.80;71.40
41437;DHT22;27178;49.460;10.850;2023-10-09T10:58:16;20.70;71.80
41437;DHT22;27178;49.460;10.850;2023-10-09T11:00:54;20.80;71.30
41437;DHT22;27178;49.460;10.850;2023-10-09T11:03:39;20.80;71.30
41437;DHT22;27178;49.460;10.850;2023-10-09T11:06:25;20.80;71.60
41437;DHT22;27178;49.460;10.850;2023-10-09T11:09:03;20.80;71.40
41437;DHT22;27178;49.460;10.850;2023-10-09T11:11:51;20.80;71.60
41437;DHT22;27178;49.460;10.850;2023-10-09T11:14:22;20.80;71.50
41437;DHT22;27178;49.460;10.850;2023-10-09T11:16:51;20.80;71.40
41437;DHT22;27178;49.460;10.850;2023-10-09T11:19:26;20.80;71.60
41437;DHT22;27178;49.460;10.850;2023-10-09T11:21:59;20.90;71.80
41437;DHT22;27178;49.460;10.850;2023-10-09T11:24:48;20.90;71.90
41437;DHT22;27178;49.460;10.850;2023-10-09T11:27:40;21.00;71.90
41437;DHT22;27178;49.460;10.850;2023-10-09T11:30:18;21.00;71.70
41437;DHT22;27178;49.460;10.850;2023-10-09T11:33:05;21.10;71.60
41437;DHT22;27178;49.460;10.850;2023-10-09T11:35:32;21.10;71.30
41437;DHT22;27178;49.460;10.850;2023-10-09T11:38:02;21.10;71.10
41437;DHT22;27178;49.460;10.850;2023-10-09T11:40:48;21.10;71.90
41437;DHT22;27178;49.460;10.850;2023-10-09T11:43:48;21.20;70.90
41437;DHT22;27178;49.460;10.850;2023-10-09T11:46:20;21.20;71.00
41437;DHT22;27178;49.460;10.850;2023-10-09T11:49:10;21.20;70.70
41437;DHT22;27178;49.460;10.850;2023-10-09T11:52:11;21.20;71.60
41437;DHT22;27178;49.460;10.850;2023-10-09T11:54:57;21.20;70.60
41437;DHT22;27178;49.460;10.850;2023-10-09T11:57:26;21.20;70.50
41437;DHT22;27178;49.460;10.850;2023-10-09T12:00:05;21.20;70.40
41437;DHT22;27178;49.460;10.850;2023-10-09T12:02:52;21.20;70.20
41437;DHT22;27178;49.460;10.850;2023-10-09T12:05:20;21.20;70.20
41437;DHT22;27178;49.460;10.850;2023-10-09T12:07:50;21.20;70.10
41437;DHT22;27178;49.460;10.850;2023-10-09T12:10:22;21.20;70.10
41437;DHT22;27178;49.460;10.850;2023-10-09T12:12:53;21.20;70.00
41437;DHT22;27178;49.460;10.850;2023-10-09T12:15:26;21.20;70.00
41437;DHT22;27178;49.460;10.850;2023-10-09T12:18:05;21.20;69.90
41437;DHT22;27178;49.460;10.850;2023-10-09T12:20:38;21.20;69.80
41437;DHT22;27178;49.460;10.850;2023-10-09T12:23:07;21.10;69.40
41437;DHT22;27178;49.460;10.850;2023-10-09T12:25:40;21.10;69.30
41437;DHT22;27178;49.460;10.850;2023-10-09T12:28:12;21.20;69.50
41437;DHT22;27178;49.460;10.850;2023-10-09T12:30:42;21.10;69.30
41437;DHT22;27178;49.460;10.850;2023-10-09T12:33:14;21.10;69.10
41437;DHT22;27178;49.460;10.850;2023-10-09T12:35:43;21.10;68.90
41437;DHT22;27178;49.460;10.850;2023-10-09T12:38:12;21.10;68.50
41437;DHT22;27178;49.460;10.850;2023-10-09T12:40:45;21.20;68.90
41437;DHT22;27178;49.460;10.850;2023-10-09T12:43:19;21.20;68.60
41437;DHT22;27178;49.460;10.850;2023-10-09T12:45:51;21.30;68.80
41437;DHT22;27178;49.460;10.850;2023-10-09T12:48:23;21.30;68.80
41437;DHT22;27178;49.460;10.850;2023-10-09T12:50:52;21.30;68.60
41437;DHT22;27178;49.460;10.850;2023-10-09T12:53:21;21.40;68.40
41437;DHT22;27178;49.460;10.850;2023-10-09T12:55:49;21.40;68.20
41437;DHT22;27178;49.460;10.850;2023-10-09T12:58:23;21.40;68.00
41437;DHT22;27178;49.460;10.850;2023-10-09T13:00:55;21.50;67.80
41437;DHT22;27178;49.460;10.850;2023-10-09T13:03:23;21.50;67.20
41437;DHT22;27178;49.460;10.850;2023-10-09T13:05:55;21.50;67.20
41437;DHT22;27178;49.460;10.850;2023-10-09T13:08:27;21.50;67.10
41437;DHT22;27178;49.460;10.850;2023-10-09T13:11:02;21.50;66.90
41437;DHT22;27178;49.460;10.850;2023-10-09T13:13:40;21.50;66.60
41437;DHT22;27178;49.460;10.850;2023-10-09T13:16:11;21.60;67.00
41437;DHT22;27178;49.460;10.850;2023-10-09T13:18:48;21.60;66.90
41437;DHT22;27178;49.460;10.850;2023-10-09T13:21:19;21.70;67.00
41437;DHT22;27178;49.460;10.850;2023-10-09T13:23:48;21.70;66.50
41437;DHT22;27178;49.460;10.850;2023-10-09T13:26:17;21.80;66.00
41437;DHT22;27178;49.460;10.850;2023-10-09T13:28:59;21.80;65.60
41437;DHT22;27178;49.460;10.850;2023-10-09T13:31:30;21.90;65.00
41437;DHT22;27178;49.460;10.850;2023-10-09T13:34:02;21.90;65.40
41437;DHT22;27178;49.460;10.850;2023-10-09T13:36:34;22.00;64.70
41437;DHT22;27178;49.460;10.850;2023-10-09T13:39:03;22.00;64.40
41437;DHT22;27178;49.460;10.850;2023-10-09T13:41:46;22.10;64.70
41437;DHT22;27178;49.460;10.850;2023-10-09T13:44:15;22.10;64.70
41437;DHT22;27178;49.460;10.850;2023-10-09T13:46:46;22.20;63.80
41437;DHT22;27178;49.460;10.850;2023-10-09T13:49:17;22.20;63.00
41437;DHT22;27178;49.460;10.850;2023-10-09T13:51:49;22.30;62.60
41437;DHT22;27178;49.460;10.850;2023-10-09T13:54:18;22.40;63.00
41437;DHT22;27178;49.460;10.850;2023-10-09T13:56:55;22.50;62.80
41437;DHT22;27178;49.460;10.850;2023-10-09T13:59:24;22.70;61.70
41437;DHT22;27178;49.460;10.850;2023-10-09T14:01:54;22.80;61.00
41437;DHT22;27178;49.460;10.850;2023-10-09T14:04:23;22.90;60.80
41437;DHT22;27178;49.460;10.850;2023-10-09T14:06:52;23.00;60.40
41437;DHT22;27178;49.460;10.850;2023-10-09T14:09:24;23.00;60.30
41437;DHT22;27178;49.460;10.850;2023-10-09T14:12:00;23.10;60.10
41437;DHT22;27178;49.460;10.850;2023-10-09T14:14:35;23.10;59.30
41437;DHT22;27178;49.460;10.850;2023-10-09T14:17:07;23.20;58.60
41437;DHT22;27178;49.460;10.850;2023-10-09T14:19:39;23.20;58.80
41437;DHT22;27178;49.460;10.850;2023-10-09T14:22:14;23.20;58.70
41437;DHT22;27178;49.460;10.850;2023-10-09T14:24:44;23.30;58.90
41437;DHT22;27178;49.460;10.850;2023-10-09T14:27:13;23.20;57.80
41437;DHT22;27178;49.460;10.850;2023-10-09T14:29:44;23.20;58.00
41437;DHT22;27178;49.460;10.850;2023-10-09T14:32:15;23.20;57.80
41437;DHT22;27178;49.460;10.850;2023-10-09T14:34:44;23.20;57.90
41437;DHT22;27178;49.460;10.850;2023-10-09T14:37:17;23.10;57.60
41437;DHT22;27178;49.460;10.850;2023-10-09T14:39:47;23.10;57.10
41437;DHT22;27178;49.460;10.850;2023-10-09T14:42:16;23.10;57.40
41437;DHT22;27178;49.460;10.850;2023-10-09T14:44:44;23.10;57.10
41437;DHT22;27178;49.460;10.850;2023-10-09T14:47:14;23.00;57.40
41437;DHT22;27178;49.460;10.850;2023-10-09T14:49:46;23.00;56.60
41437;DHT22;27178;49.460;10.850;2023-10-09T14:52:15;23.00;56.70
41437;DHT22;27178;49.460;10.850;2023-10-09T14:54:46;22.90;57.30
41437;DHT22;27178;49.460;10.850;2023-10-09T14:57:17;22.90;56.90
41437;DHT22;27178;49.460;10.850;2023-10-09T14:59:46;22.90;57.30
41437;DHT22;27178;49.460;10.850;2023-10-09T15:02:17;22.80;57.20
41437;DHT22;27178;49.460;10.850;2023-10-09T15:04:46;22.80;57.50
41437;DHT22;27178;49.460;10.850;2023-10-09T15:07:15;22.80;57.60
41437;DHT22;27178;49.460;10.850;2023-10-09T15:10:05;22.70;57.60
41437;DHT22;27178;49.460;10.850;2023-10-09T15:12:36;22.70;57.60
41437;DHT22;27178;49.460;10.850;2023-10-09T15:15:10;22.70;57.60
41437;DHT22;27178;49.460;10.850;2023-10-09T15:17:43;22.60;57.60
41437;DHT22;27178;49.460;10.850;2023-10-09T15:20:13;22.60;57.50
41437;DHT22;27178;49.460;10.850;2023-10-09T15:22:42;22.60;56.60
41437;DHT22;27178;49.460;10.850;2023-10-09T15:25:11;22.50;57.40
41437;DHT22;27178;49.460;10.850;2023-10-09T15:27:42;22.50;57.60
41437;DHT22;27178;49.460;10.850;2023-10-09T15:30:11;22.50;57.70
41437;DHT22;27178;49.460;10.850;2023-10-09T15:32:43;22.40;57.60
41437;DHT22;27178;49.460;10.850;2023-10-09T15:35:12;22.40;57.80
41437;DHT22;27178;49.460;10.850;2023-10-09T15:37:41;22.40;57.80
41437;DHT22;27178;49.460;10.850;2023-10-09T15:40:10;22.40;57.90
41437;DHT22;27178;49.460;10.850;2023-10-09T15:42:44;22.40;58.00
41437;DHT22;27178;49.460;10.850;2023-10-09T15:45:17;22.30;58.10
41437;DHT22;27178;49.460;10.850;2023-10-09T15:47:50;22.30;58.10
41437;DHT22;27178;49.460;10.850;2023-10-09T15:50:20;22.30;58.30
41437;DHT22;27178;49.460;10.850;2023-10-09T15:52:52;22.30;58.30
41437;DHT22;27178;49.460;10.850;2023-10-09T15:55:21;22.20;58.40
41437;DHT22;27178;49.460;10.850;2023-10-09T15:57:52;22.20;58.60
41437;DHT22;27178;49.460;10.850;2023-10-09T16:00:22;22.20;58.60
41437;DHT22;27178;49.460;10.850;2023-10-09T16:02:57;22.20;59.30
41437;DHT22;27178;49.460;10.850;2023-10-09T16:05:28;22.20;58.70
41437;DHT22;27178;49.460;10.850;2023-10-09T16:07:58;22.10;58.70
41437;DHT22;27178;49.460;10.850;2023-10-09T16:10:27;22.10;59.00